Welcome to our new website - Welkom op onze vernieuwde website - Bienvenue sur notre nouveau site web - Willkommen auf unserer neuen Website
Check our progress frequently. Prüfen Sie unsere Fortschritte regelmäßig. Consultez notre progression fréquemment. Komt u straks nog eens terug

Bezoek ook deze websites:

Template documentation
and downloads

And another site



We konden geen weer-waarchuwingen ophalen. Ga rechtstreeks naar de Meteoalarm site : www.meteoalarm.eu en controleer daar .

METAR rapporten vliegvelden

   
EHDL - Deelen Rnlafb, Netherlands
Afstand tot: ZW 55 km
Gewijzigd: 02-12-2022 19:55
Bewolking  
Bewolking  
   Wind: ONO 24.1 km/h
Wind: ONO 24.1 km/h
Temperatuur: 2°C
Voelt als: -3°C
Dauwpunt: -1°C
Vochtigheid: 81%
Barometer: 1024 hPa
Bewolking: Bewolking
Zicht: meer dan 10 km
Bewolking: Bewolking 1400 ft
EHDL 021855Z AUTO 07013KT 9999 OVC014 02/M01 Q1024 GRN
EHLE - Lelystad, Netherlands
Afstand tot: W 64 km
Gewijzigd: 02-12-2022 19:55
Bewolking  
Bewolking  
   Wind: ONO 18.5 km/h
Wind: ONO 18.5 km/h
Temperatuur: 2°C
Voelt als: -2°C
Dauwpunt: 0°C
Vochtigheid: 87%
Barometer: 1026 hPa
Bewolking: Bewolking
Zicht: 9 km
Bewolking: Bewolking 1500 ft
EHLE 021855Z AUTO 07010KT 040V100 9000 OVC015 02/M00 Q1026 NOSIG
ETWM - Meppen, Germany
Afstand tot: ONO 69 km
Gewijzigd: 02-12-2022 19:20
  
  
   Wind: ONO 18.5 km/h
Wind: ONO 18.5 km/h
Temperatuur: 2°C
Voelt als: -2°C
Dauwpunt: -2°C
Vochtigheid: 75%
Barometer: 1026 hPa
ETWM 021820Z AUTO 06010KT //// // ////// 02/M02 Q1026 ///
EHGG - Groningen/Eelde, Netherlands
Afstand tot: N 79 km
Gewijzigd: 02-12-2022 19:55
Bewolking  
Bewolking  
   Wind: ONO 20.4 km/h
Wind: ONO 20.4 km/h
Temperatuur: 2°C
Voelt als: -3°C
Dauwpunt: -1°C
Vochtigheid: 81%
Barometer: 1027 hPa
Bewolking: Bewolking
Zicht: meer dan 10 km
Bewolking: Bewolking 1600 ft
EHGG 021855Z AUTO 06011KT 030V090 9999 OVC016 02/M01 Q1027 NOSIG
EDDG - Muenster/Osnabru, Germany
Afstand tot: OZO 90 km
Gewijzigd: 02-12-2022 19:50
Bewolking  
Bewolking  
   Wind: NO 13 km/h
Wind: NO 13 km/h
Temperatuur: 1°C
Voelt als: -3°C
Dauwpunt: -1°C
Vochtigheid: 87%
Barometer: 1024 hPa
Bewolking: Bewolking
Zicht: meer dan 10 km
Bewolking: Bewolking 1500 ft
EDDG 021850Z AUTO 04007KT 360V100 9999 OVC015 01/M01 Q1024 BECMG BKN012
EDLV - Niederrhein, Germany
Afstand tot: ZZW 92 km
Gewijzigd: 02-12-2022 19:50
Grotendeels bewolkt  
Grotendeels bewolkt  
   Wind: NO 13 km/h
Wind: NO 13 km/h
Temperatuur: 3°C
Voelt als: -1°C
Dauwpunt: -1°C
Vochtigheid: 75%
Barometer: 1023 hPa
Bewolking: Grotendeels bewolkt
Zicht: meer dan 10 km
Bewolking: Grotendeels bewolkt 2300 ft,
Grotendeels bewolkt 2800 ft
EDLV 021850Z 05007KT 010V100 9999 BKN023 BKN028 03/M01 Q1023

Script ontwikkeld door  Saratoga-weather.org Aangepast voor de template door  Weerstation Leuven

U vindt ons ook hier:

Het Weer Aktueel

European Weather Network

Weather Underground

Benelux Weer Netwerk

Apparatuur in gebruik:

Weerstation
Davis VP2

Weerprogramma
Meteobridge

Weercomputer
Meteobridge Pro+

Webleverancier
vip.nl

Davis VP2

Meteobridge

Meteobridge Pro+

vip.nl